createdAt,value
2022-12-01T00:02:08.016Z,8.20
2022-12-01T00:06:16.306Z,7.95
2022-12-01T00:10:27.343Z,7.40
2022-12-01T00:14:29.445Z,7.82
2022-12-01T00:18:31.472Z,7.47
2022-12-01T00:22:33.988Z,7.78
2022-12-01T00:26:38.280Z,8.98
2022-12-01T00:30:40.487Z,8.05
2022-12-01T00:34:42.622Z,8.68
2022-12-01T00:38:45.440Z,7.63
2022-12-01T00:42:47.557Z,8.70
2022-12-01T00:46:50.123Z,7.22
2022-12-01T00:50:53.542Z,7.63
2022-12-01T00:54:55.694Z,7.18
2022-12-01T00:58:57.770Z,6.68
2022-12-01T01:02:59.842Z,6.55
2022-12-01T01:07:01.903Z,6.10
2022-12-01T01:11:05.531Z,5.82
2022-12-01T01:15:08.613Z,6.40
2022-12-01T01:19:10.783Z,7.03
2022-12-01T01:23:12.916Z,6.28
2022-12-01T01:27:15.052Z,6.20
2022-12-01T01:31:20.944Z,5.22
2022-12-01T01:35:23.488Z,5.72
2022-12-01T01:39:25.517Z,5.53
2022-12-01T01:44:01.881Z,5.80
2022-12-01T01:48:04.537Z,5.32
2022-12-01T01:52:06.679Z,5.93
2022-12-01T01:56:09.361Z,5.43
2022-12-01T02:00:15.577Z,5.20
2022-12-01T02:04:20.680Z,5.80
2022-12-01T02:08:22.973Z,5.28
2022-12-01T02:12:55.877Z,4.00
2022-12-01T02:17:41.505Z,4.68
2022-12-01T02:22:09.281Z,5.90
2022-12-01T02:26:33.498Z,6.03
2022-12-01T02:30:51.455Z,5.70
2022-12-01T02:35:15.777Z,5.68
2022-12-01T02:39:28.104Z,5.75
2022-12-01T02:43:42.471Z,5.80
2022-12-01T02:47:46.132Z,5.40
2022-12-01T02:51:51.149Z,4.53
2022-12-01T02:55:55.829Z,5.35
2022-12-01T03:00:00.122Z,5.40
2022-12-01T03:04:26.845Z,5.18
2022-12-01T03:08:32.877Z,5.40
2022-12-01T03:13:05.720Z,5.38
2022-12-01T03:17:17.325Z,6.55
2022-12-01T03:21:28.472Z,7.20
2022-12-01T03:25:31.965Z,8.55
2022-12-01T03:29:41.539Z,6.70
2022-12-01T03:33:50.591Z,7.50
2022-12-01T03:38:03.103Z,6.90
2022-12-01T03:42:28.234Z,7.00
2022-12-01T03:46:59.221Z,6.22
2022-12-01T03:51:01.178Z,7.05
2022-12-01T03:55:30.298Z,7.00
2022-12-01T03:59:36.544Z,6.68
2022-12-01T04:03:39.237Z,7.10
2022-12-01T04:07:41.336Z,6.25
2022-12-01T04:12:01.958Z,7.63
2022-12-01T04:16:04.392Z,7.30
2022-12-01T04:20:08.017Z,6.55
2022-12-01T04:24:12.606Z,6.47
2022-12-01T04:28:14.929Z,8.37
2022-12-01T04:32:17.105Z,6.75
2022-12-01T04:36:19.188Z,6.50
2022-12-01T04:40:21.914Z,6.97
2022-12-01T04:44:23.986Z,6.97
2022-12-01T04:48:26.097Z,6.70
2022-12-01T04:52:33.633Z,7.60
2022-12-01T04:56:37.312Z,7.20
2022-12-01T05:00:39.500Z,7.57
2022-12-01T05:04:42.256Z,7.40
2022-12-01T05:08:45.001Z,6.55
2022-12-01T05:12:47.157Z,8.63
2022-12-01T05:16:49.396Z,8.38
2022-12-01T05:20:57.961Z,9.00
2022-12-01T05:25:01.138Z,8.75
2022-12-01T05:29:04.061Z,7.05
2022-12-01T05:33:06.164Z,6.40
2022-12-01T05:37:08.564Z,6.05
2022-12-01T05:41:11.553Z,6.70
2022-12-01T05:45:13.644Z,6.80
2022-12-01T05:49:15.811Z,6.97
2022-12-01T05:53:19.249Z,7.03
2022-12-01T05:57:21.387Z,6.75
2022-12-01T06:01:23.495Z,6.70
2022-12-01T06:05:25.666Z,6.60
2022-12-01T06:09:27.751Z,5.75
2022-12-01T06:13:29.836Z,6.35
2022-12-01T06:17:34.621Z,5.72
2022-12-01T06:21:41.572Z,8.35
2022-12-01T06:25:44.085Z,9.18
2022-12-01T06:29:46.148Z,7.53
2022-12-01T06:33:48.913Z,6.63
2022-12-01T06:37:54.437Z,5.90
2022-12-01T06:41:56.519Z,7.35
2022-12-01T06:46:01.966Z,7.25
2022-12-01T06:50:08.952Z,7.18
2022-12-01T06:54:14.653Z,7.30
2022-12-01T06:58:17.061Z,6.65
2022-12-01T07:02:20.198Z,7.63
2022-12-01T07:06:22.637Z,7.18
2022-12-01T07:10:24.670Z,8.45
2022-12-01T07:14:28.045Z,8.95
2022-12-01T07:18:30.525Z,9.90
2022-12-01T07:22:33.132Z,8.75
2022-12-01T07:26:35.472Z,9.00
2022-12-01T07:30:37.567Z,9.25
2022-12-01T07:34:40.083Z,9.63
2022-12-01T07:38:42.580Z,9.25
2022-12-01T07:42:44.737Z,9.15
2022-12-01T07:46:47.463Z,9.38
2022-12-01T07:50:49.585Z,9.88
2022-12-01T07:54:52.770Z,10.45
2022-12-01T07:58:55.160Z,9.65
2022-12-01T08:02:57.280Z,10.70
2022-12-01T08:06:59.495Z,10.40
2022-12-01T08:11:07.062Z,10.02
2022-12-01T08:15:09.624Z,12.20
2022-12-01T08:19:12.052Z,11.40
2022-12-01T08:23:14.094Z,10.32
2022-12-01T08:27:16.165Z,10.60
2022-12-01T08:31:30.355Z,10.95
2022-12-01T08:35:35.777Z,9.75
2022-12-01T08:39:41.003Z,11.05
2022-12-01T08:44:01.111Z,11.30
2022-12-01T08:48:03.935Z,9.82
2022-12-01T08:52:06.217Z,11.02
2022-12-01T08:56:12.676Z,10.52
2022-12-01T09:00:15.672Z,11.45
2022-12-01T09:04:22.825Z,17.63
2022-12-01T09:08:35.522Z,12.57
2022-12-01T09:12:39.089Z,7.15
2022-12-01T09:16:42.968Z,5.30
2022-12-01T09:20:45.052Z,6.03
2022-12-01T09:24:47.860Z,4.65
2022-12-01T09:28:54.206Z,4.35
2022-12-01T09:32:56.433Z,3.42
2022-12-01T09:36:58.972Z,3.13
2022-12-01T09:41:05.944Z,2.92
2022-12-01T09:45:18.945Z,2.50
2022-12-01T09:49:25.406Z,2.35
2022-12-01T09:53:29.757Z,2.15
2022-12-01T10:01:43.047Z,1.40
2022-12-01T10:06:18.641Z,1.83
2022-12-01T10:10:25.049Z,2.03
2022-12-01T10:14:29.843Z,4.30
2022-12-01T10:19:01.391Z,1.30
2022-12-01T10:23:25.207Z,1.80
2022-12-01T10:27:30.423Z,1.40
2022-12-01T10:31:39.278Z,1.60
2022-12-01T10:35:41.911Z,1.45
2022-12-01T10:39:46.668Z,1.38
2022-12-01T10:43:52.251Z,1.85
2022-12-01T10:48:15.400Z,1.27
2022-12-01T10:52:40.686Z,1.42
2022-12-01T10:56:47.876Z,1.52
2022-12-01T11:01:03.653Z,1.17
2022-12-01T11:05:22.685Z,1.50
2022-12-01T11:09:28.622Z,1.40
2022-12-01T11:13:35.119Z,1.20
2022-12-01T11:17:42.274Z,1.45
2022-12-01T11:21:53.386Z,1.88
2022-12-01T11:26:00.388Z,1.60
2022-12-01T11:30:06.855Z,1.52
2022-12-01T11:34:38.844Z,1.15
2022-12-01T11:38:40.960Z,1.58
2022-12-01T11:42:49.923Z,1.20
2022-12-01T11:47:07.861Z,1.38
2022-12-01T11:51:20.618Z,1.77
2022-12-01T11:55:28.673Z,2.10
2022-12-01T11:59:30.682Z,1.30
2022-12-01T12:03:43.264Z,1.10
2022-12-01T12:08:05.819Z,1.45
2022-12-01T12:12:16.873Z,1.67
2022-12-01T12:16:26.376Z,1.48
2022-12-01T12:20:52.139Z,1.00
2022-12-01T12:25:13.634Z,1.60
2022-12-01T12:29:42.372Z,1.38
2022-12-01T12:34:11.311Z,2.13
2022-12-01T12:38:54.800Z,2.85
2022-12-01T12:43:30.532Z,2.25
2022-12-01T12:48:03.269Z,1.42
2022-12-01T12:52:10.822Z,1.85
2022-12-01T12:56:17.234Z,1.50
2022-12-01T13:00:23.593Z,1.55
2022-12-01T13:04:45.550Z,1.88
2022-12-01T13:08:56.215Z,1.60
2022-12-01T13:13:24.984Z,1.77
2022-12-01T13:17:52.227Z,2.13
2022-12-01T13:21:55.973Z,1.55
2022-12-01T13:26:01.369Z,1.80
2022-12-01T13:30:04.315Z,1.60
2022-12-01T13:34:06.598Z,1.50
2022-12-01T13:38:30.370Z,1.40
2022-12-01T13:42:34.614Z,1.63
2022-12-01T13:46:42.855Z,1.52
2022-12-01T13:50:47.611Z,1.88
2022-12-01T13:55:03.990Z,1.70
2022-12-01T14:00:03.551Z,1.80
2022-12-01T14:04:38.024Z,2.35
2022-12-01T14:08:49.386Z,1.73
2022-12-01T14:12:54.445Z,1.92
2022-12-01T14:17:01.050Z,1.48
2022-12-01T14:21:11.511Z,1.92
2022-12-01T14:25:25.804Z,2.22
2022-12-01T14:29:43.080Z,1.77
2022-12-01T14:34:07.416Z,1.75
2022-12-01T14:38:11.148Z,2.30
2022-12-01T14:42:52.595Z,1.60
2022-12-01T14:47:02.414Z,2.17
2022-12-01T14:51:27.655Z,2.20
2022-12-01T14:55:43.697Z,1.98
2022-12-01T14:59:46.084Z,2.67
2022-12-01T15:03:52.071Z,2.80
2022-12-01T15:08:40.124Z,2.17
2022-12-01T15:12:35.653Z,1.95
2022-12-01T15:16:43.585Z,2.03
2022-12-01T15:20:47.912Z,2.17
2022-12-01T15:24:51.828Z,2.20
2022-12-01T15:29:18.080Z,2.08
2022-12-01T15:33:37.032Z,2.15
2022-12-01T15:37:43.387Z,2.05
2022-12-01T15:41:53.879Z,2.20
2022-12-01T15:46:02.235Z,2.13
2022-12-01T15:50:06.273Z,2.10
2022-12-01T15:54:20.992Z,1.95
2022-12-01T15:58:26.428Z,2.25
2022-12-01T16:02:31.984Z,2.13
2022-12-01T16:06:37.067Z,2.15
2022-12-01T16:10:39.254Z,2.58
2022-12-01T16:14:52.900Z,2.50
2022-12-01T16:19:00.542Z,2.55
2022-12-01T16:23:05.520Z,2.67
2022-12-01T16:27:22.048Z,12.27
2022-12-01T16:31:26.285Z,16.38
2022-12-01T16:35:31.563Z,23.08
2022-12-01T16:39:33.572Z,14.95
2022-12-01T16:43:35.697Z,12.18
2022-12-01T16:47:37.812Z,14.30
2022-12-01T16:51:55.266Z,14.55
2022-12-01T16:56:00.930Z,9.50
2022-12-01T17:00:03.592Z,11.10
2022-12-01T17:04:07.713Z,13.25
2022-12-01T17:08:10.185Z,12.20
2022-12-01T17:12:12.387Z,12.45
2022-12-01T17:16:18.431Z,11.85
2022-12-01T17:20:20.960Z,14.93
2022-12-01T17:24:23.516Z,11.75
2022-12-01T17:28:25.998Z,12.57
2022-12-01T17:32:28.586Z,7.88
2022-12-01T17:36:30.742Z,11.85
2022-12-01T17:40:32.805Z,9.90
2022-12-01T17:44:35.539Z,10.70
2022-12-01T17:48:39.503Z,25.52
2022-12-01T17:52:41.758Z,14.90
2022-12-01T17:56:43.963Z,17.70
2022-12-01T18:00:46.087Z,9.30
2022-12-01T18:04:48.428Z,8.13
2022-12-01T18:08:50.885Z,7.90
2022-12-01T18:12:53.021Z,8.63
2022-12-01T18:16:55.319Z,6.82
2022-12-01T18:20:57.397Z,8.45
2022-12-01T18:24:59.531Z,9.27
2022-12-01T18:29:07.736Z,9.40
2022-12-01T18:33:12.448Z,8.63
2022-12-01T18:41:30.438Z,9.68
2022-12-01T18:45:33.497Z,10.30
2022-12-01T18:49:38.914Z,13.77
2022-12-01T18:53:45.561Z,13.63
2022-12-01T18:57:53.032Z,11.00
2022-12-01T19:01:57.502Z,9.25
2022-12-01T19:05:59.826Z,11.23
2022-12-01T19:15:36.596Z,10.57
2022-12-01T19:19:46.335Z,6.88
2022-12-01T19:23:48.816Z,6.57
2022-12-01T19:27:53.383Z,7.15
2022-12-01T19:35:57.621Z,8.85
2022-12-01T19:40:00.513Z,10.95
2022-12-01T19:44:02.788Z,18.25
2022-12-01T19:48:06.141Z,9.45
2022-12-01T19:52:08.467Z,16.42
2022-12-01T19:56:10.517Z,8.30
2022-12-01T20:00:13.078Z,8.65
2022-12-01T20:04:16.471Z,9.87
2022-12-01T20:08:19.741Z,10.35
2022-12-01T20:12:21.914Z,10.48
2022-12-01T20:16:26.805Z,12.13
2022-12-01T20:20:29.399Z,10.57
2022-12-01T20:24:31.682Z,15.60
2022-12-01T20:28:36.065Z,13.27
2022-12-01T20:36:40.898Z,7.20
2022-12-01T20:40:43.496Z,7.85
2022-12-01T20:44:47.659Z,6.97
2022-12-01T20:48:50.309Z,6.80
2022-12-01T20:52:52.581Z,7.55
2022-12-01T20:56:54.795Z,5.90
2022-12-01T21:00:57.023Z,7.13
2022-12-01T21:04:59.586Z,6.72
2022-12-01T21:09:03.174Z,7.03
2022-12-01T21:13:41.801Z,6.38
2022-12-01T21:18:01.000Z,5.82
2022-12-01T21:22:10.247Z,6.30
2022-12-01T21:26:16.403Z,6.38
2022-12-01T21:30:26.210Z,5.90
2022-12-01T21:34:29.579Z,5.55
2022-12-01T21:38:32.051Z,5.30
2022-12-01T21:42:36.974Z,6.60
2022-12-01T21:46:42.538Z,6.90
2022-12-01T21:50:50.949Z,5.70
2022-12-01T21:55:29.395Z,6.10
2022-12-01T21:59:32.474Z,6.75
2022-12-01T22:03:39.774Z,5.68
2022-12-01T22:07:41.948Z,7.22
2022-12-01T22:11:48.221Z,6.63
2022-12-01T22:15:52.790Z,7.68
2022-12-01T22:20:01.393Z,8.07
2022-12-01T22:24:09.532Z,6.57
2022-12-01T22:28:19.999Z,7.78
2022-12-01T22:32:33.105Z,6.47
2022-12-01T22:36:35.126Z,7.07
2022-12-01T22:40:47.835Z,9.10
2022-12-01T22:44:50.140Z,7.28
2022-12-01T22:48:55.712Z,6.43
2022-12-01T22:53:06.534Z,6.18
2022-12-01T22:57:17.520Z,7.15
2022-12-01T23:01:28.086Z,6.15
2022-12-01T23:05:31.012Z,6.20
2022-12-01T23:09:37.850Z,6.53
2022-12-01T23:13:39.912Z,6.78
2022-12-01T23:17:41.932Z,6.85
2022-12-01T23:21:44.226Z,11.20
2022-12-01T23:25:49.349Z,9.50
2022-12-01T23:29:51.502Z,7.55
2022-12-01T23:33:53.680Z,7.90
2022-12-01T23:37:55.974Z,7.68
2022-12-01T23:41:59.015Z,7.28
2022-12-01T23:46:11.698Z,7.57
2022-12-01T23:50:20.251Z,8.60
2022-12-01T23:54:29.592Z,8.68
2022-12-01T23:58:31.885Z,10.00
